ADDS METAR Data INFO
IDs: Format: Raw Decoded Include TAF

Data at: 0354 UTC 19 Jul 2018

KOLE 190335Z AUTO 00000KT 10SM CLR 14/11 A3011 RMK AO2
KOLE 190315Z AUTO 00000KT 10SM CLR 14/11 A3011 RMK AO2
KOLE 190255Z AUTO 09004KT 10SM CLR 13/10 A3011 RMK AO2
KOLE 190235Z AUTO 07003KT 10SM CLR 13/10 A3011 RMK AO2
KOLE 190215Z AUTO 04005KT 10SM CLR 15/10 A3011 RMK AO2
KOLE 190155Z AUTO 01005KT 10SM CLR 15/10 A3011 RMK AO2
KOLE 190135Z AUTO 36003KT 10SM CLR 16/10 A3010 RMK AO2
KOLE 190115Z AUTO 34003KT 10SM CLR 16/11 A3009 RMK AO2
KOLE 190055Z AUTO 00000KT 10SM CLR 16/11 A3009 RMK AO2
KOLE 190035Z AUTO 35005KT 10SM CLR 17/11 A3009 RMK AO2
KOLE 190015Z AUTO 35005KT 10SM CLR 18/11 A3008 RMK AO2
KOLE 182355Z AUTO 34006KT 10SM CLR 18/11 A3008 RMK AO2
KOLE 182335Z AUTO 34004KT 10SM CLR 19/11 A3008 RMK AO2
KOLE 182315Z AUTO 33003KT 10SM CLR 20/11 A3008 RMK AO2
KOLE 182255Z AUTO 31003KT 10SM CLR 20/11 A3008 RMK AO2
KOLE 182235Z AUTO 33004KT 10SM SCT044 20/10 A3008 RMK AO2
KOLE 182215Z AUTO 30003KT 10SM CLR 21/11 A3008 RMK AO2
KOLE 182155Z AUTO 33006KT 10SM CLR 21/11 A3008 RMK AO2
KOLE 182135Z AUTO 31005KT 10SM SCT048 SCT050 21/11 A3008 RMK AO2
KOLE 182115Z AUTO 31005KT 10SM BKN050 22/11 A3007 RMK AO2
KOLE 182055Z AUTO 31005KT 10SM BKN050 21/11 A3008 RMK AO2
KOLE 182035Z AUTO 30005KT 10SM BKN050 22/10 A3008 RMK AO2
KOLE 182015Z AUTO 33004KT 10SM SCT050 21/10 A3008 RMK AO2
KOLE 181955Z AUTO 33003KT 10SM SCT050 21/11 A3008 RMK AO2
KOLE 181935Z AUTO 05003KT 10SM BKN050 21/10 A3008 RMK AO2
KOLE 181915Z AUTO 32004KT 10SM BKN048 BKN055 21/10 A3009 RMK AO2
KOLE 181855Z AUTO 36005KT 10SM BKN048 21/11 A3009 RMK AO2
KOLE 181835Z AUTO 03006KT 10SM SCT048 20/10 A3009 RMK AO2
KOLE 181815Z AUTO 33003KT 10SM SCT048 20/10 A3009 RMK AO2
KOLE 181755Z AUTO 35008KT 10SM BKN048 20/10 A3009 RMK AO2
KOLE 181735Z AUTO 35008KT 10SM SCT043 BKN048 20/10 A3010 RMK AO2
KOLE 181715Z AUTO 01007KT 10SM SCT042 20/10 A3010 RMK AO2
KOLE 181655Z AUTO 03007KT 10SM SCT041 SCT048 20/11 A3010 RMK AO2
KOLE 181635Z AUTO 30003KT 10SM SCT038 OVC048 19/11 A3010 RMK AO2
KOLE 181615Z AUTO 32006KT 10SM SCT036 BKN048 19/11 A3010 RMK AO2
KOLE 181555Z AUTO 02006KT 10SM SCT031 SCT042 SCT048 19/11 A3011 RMK AO2
KOLE 181535Z AUTO 01005KT 10SM SCT039 SCT048 19/12 A3011 RMK AO2
KOLE 181515Z AUTO 06006KT 10SM SCT027 SCT050 18/12 A3011 RMK AO2
KOLE 181455Z AUTO 03006KT 020V080 10SM SCT021 SCT029 SCT050 18/13 A3011 RMK AO2
KOLE 181435Z AUTO 03006KT 10SM BKN021 BKN026 BKN044 17/13 A3010 RMK AO2
KOLE 181415Z AUTO 03003KT 10SM SCT021 BKN028 OVC046 16/13 A3010 RMK AO2
KOLE 181355Z AUTO 05005KT 10SM SCT019 BKN024 BKN030 17/13 A3010 RMK AO2
KOLE 181335Z AUTO 05007KT 10SM SCT016 BKN024 OVC031 16/14 A3010 RMK AO2
KOLE 181315Z AUTO 04005KT 10SM BKN013 OVC018 15/14 A3009 RMK AO2
KOLE 181255Z AUTO 04005KT 10SM OVC013 15/14 A3009 RMK AO2
KOLE 181235Z AUTO 03008KT 10SM BKN011 BKN020 BKN050 15/14 A3008 RMK AO2
KOLE 181215Z AUTO 00000KT 10SM BKN020 14/13 A3009 RMK AO2
KOLE 181155Z AUTO 00000KT 10SM OVC020 14/13 A3008 RMK AO2
KOLE 181135Z AUTO 00000KT 10SM BKN020 BKN042 BKN050 13/13 A3007 RMK AO2
KOLE 181115Z AUTO 00000KT 10SM SCT020 SCT042 SCT050 13/12 A3007 RMK AO2
KOLE 181055Z AUTO 00000KT 10SM CLR 13/12 A3006 RMK AO2
KOLE 181035Z AUTO 00000KT 10SM SCT038 12/12 A3006 RMK AO2
KOLE 181015Z AUTO 31004KT 10SM SCT018 BKN036 12/12 A3005 RMK AO2
KOLE 180955Z AUTO 31003KT 10SM SCT018 SCT036 12/12 A3004 RMK AO2
KOLE 180935Z AUTO 32003KT 10SM SCT036 12/12 A3004 RMK AO2
KOLE 180915Z AUTO 32004KT 10SM CLR 12/12 A3004 RMK AO2
KOLE 180855Z AUTO 31005KT 10SM CLR 12/12 A3003 RMK AO2
KOLE 180835Z AUTO 31005KT 10SM CLR 12/12 A3003 RMK AO2
KOLE 180815Z AUTO 31005KT 10SM CLR 12/12 A3003 RMK AO2
KOLE 180755Z AUTO 31004KT 10SM CLR 13/11 A3003 RMK AO2
KOLE 180735Z AUTO 33003KT 10SM CLR 13/11 A3003 RMK AO2
KOLE 180715Z AUTO 33003KT 10SM CLR 13/11 A3002 RMK AO2
KOLE 180655Z AUTO 35004KT 10SM CLR 13/11 A3002 RMK AO2
KOLE 180635Z AUTO 34003KT 10SM CLR 13/11 A3002 RMK AO2
KOLE 180615Z AUTO 34003KT 10SM CLR 14/11 A3002 RMK AO2
KOLE 180555Z AUTO 00000KT 10SM CLR 14/12 A3002 RMK AO2
KOLE 180535Z AUTO 32003KT 10SM CLR 15/12 A3001 RMK AO2
KOLE 180515Z AUTO 31003KT 10SM CLR 14/12 A3001 RMK AO2
KOLE 180455Z AUTO 32003KT 10SM CLR 15/12 A3001 RMK AO2
KOLE 180435Z AUTO 33003KT 10SM CLR 15/11 A3001 RMK AO2
KOLE 180415Z AUTO 35004KT 10SM CLR 16/11 A3001 RMK AO2
KOLE 180355Z AUTO 34003KT 10SM CLR 16/11 A3001 RMK AO2
KOLE 180335Z AUTO 32004KT 10SM CLR 15/11 A3001 RMK AO2
KOLE 180315Z AUTO 31003KT 10SM CLR 16/11 A3001 RMK AO2
KOLE 180255Z AUTO 00000KT 10SM CLR 16/12 A3001 RMK AO2
KOLE 180235Z AUTO 00000KT 10SM CLR 16/12 A3001 RMK AO2
KOLE 180215Z AUTO 00000KT 10SM CLR 16/12 A3001 RMK AO2
KOLE 180155Z AUTO 00000KT 10SM CLR 16/12 A3001 RMK AO2
KOLE 180135Z AUTO 00000KT 10SM SCT050 SCT060 17/12 A3000 RMK AO2
KOLE 180115Z AUTO 30003KT 10SM SCT050 BKN060 17/11 A3000 RMK AO2
KOLE 180055Z AUTO 30004KT 10SM SCT050 18/11 A2999 RMK AO2
KOLE 180035Z AUTO 30003KT 10SM SCT050 18/12 A2999 RMK AO2
KOLE 180015Z AUTO 30004KT 10SM CLR 20/11 A2997 RMK AO2
KOLE 172355Z AUTO 30004KT 10SM SCT050 20/11 A2997 RMK AO2
KOLE 172335Z AUTO 30007G17KT 250V320 10SM SCT047 SCT065 21/11 A2997 RMK AO2
KOLE 172315Z AUTO 30008KT 270V330 10SM SCT047 SCT065 21/11 A2995 RMK AO2
KOLE 172255Z AUTO 30006KT 10SM CLR 21/11 A2996 RMK AO2
KOLE 172235Z AUTO 31007KT 10SM SCT050 21/11 A2995 RMK AO2
KOLE 172215Z AUTO 29008G15KT 260V340 10SM SCT050 SCT055 22/11 A2995 RMK AO2
KOLE 172155Z AUTO 29006KT 10SM SCT060 22/12 A2995 RMK AO2
KOLE 172135Z AUTO 31008G15KT 270V340 10SM SCT050 SCT060 22/11 A2995 RMK AO2
KOLE 172115Z AUTO 30009G16KT 280V350 10SM SCT048 SCT060 22/11 A2994 RMK AO2
KOLE 172055Z AUTO 29006G14KT 250V360 10SM SCT050 22/12 A2994 RMK AO2
KOLE 172035Z AUTO 30008G17KT 240V320 10SM SCT050 SCT060 22/11 A2993 RMK AO2
KOLE 172015Z AUTO 31008G18KT 250V320 10SM SCT050 22/12 A2993 RMK AO2
KOLE 171955Z AUTO 31007G14KT 280V340 10SM SCT055 23/12 A2993 RMK AO2 LTG DSNT S
KOLE 171935Z AUTO 30010G14KT 270V330 10SM SCT050 23/10 A2993 RMK AO2 LTG DSNT SE
KOLE 171915Z AUTO 30011G15KT 270V340 10SM SCT050 23/12 A2993 RMK AO2 LTG DSNT S
KOLE 171855Z AUTO 33009KT 10SM CLR 23/12 A2993 RMK AO2
KOLE 171835Z AUTO 30007G14KT 10SM CLR 23/12 A2993 RMK AO2 LTG DSNT S
KOLE 171815Z AUTO 30008G15KT 270V330 10SM SCT036 SCT044 SCT050 23/13 A2993 RMK AO2 LTG DSNT SE
KOLE 171755Z AUTO 28005G14KT 10SM SCT034 SCT042 BKN060 23/15 A2994 RMK AO2
KOLE 171735Z AUTO 31006KT 10SM SCT034 SCT041 BKN050 23/16 A2994 RMK AO2
KOLE 171715Z AUTO 30004KT 10SM SCT034 BKN040 BKN046 23/16 A2994 RMK AO2 LTG DSNT S
KOLE 171655Z AUTO 33005KT 10SM BKN036 BKN042 BKN050 23/16 A2994 RMK AO2 LTG DSNT S
KOLE 171635Z AUTO 33005KT 10SM SCT036 BKN042 22/17 A2994 RMK AO2 LTG DSNT S
KOLE 171615Z AUTO 31007KT 10SM SCT021 SCT027 BKN038 23/17 A2994 RMK AO2 LTG DSNT S
KOLE 171555Z AUTO 33006KT 10SM BKN021 BKN033 BKN041 22/19 A2994 RMK AO2